createdAt,value
2023-03-14T00:00:42.366Z,99.90
2023-03-14T00:03:10.830Z,99.90
2023-03-14T00:05:38.856Z,99.90
2023-03-14T00:08:07.484Z,99.90
2023-03-14T00:10:37.906Z,99.90
2023-03-14T00:13:07.688Z,99.90
2023-03-14T00:15:36.093Z,99.90
2023-03-14T00:18:06.048Z,99.90
2023-03-14T00:20:34.125Z,99.90
2023-03-14T00:23:03.470Z,99.90
2023-03-14T00:25:31.687Z,99.90
2023-03-14T00:27:59.847Z,99.90
2023-03-14T00:30:27.908Z,99.90
2023-03-14T00:32:56.420Z,99.90
2023-03-14T00:35:25.944Z,99.90
2023-03-14T00:37:54.808Z,99.90
2023-03-14T00:40:23.102Z,99.90
2023-03-14T00:42:51.175Z,99.90
2023-03-14T00:45:19.361Z,99.90
2023-03-14T00:47:47.666Z,99.90
2023-03-14T00:50:15.746Z,99.90
2023-03-14T00:52:45.391Z,99.90
2023-03-14T00:55:13.655Z,99.90
2023-03-14T00:57:41.998Z,99.90
2023-03-14T01:00:13.207Z,99.90
2023-03-14T01:02:41.445Z,99.90
2023-03-14T01:05:11.231Z,99.90
2023-03-14T01:07:39.573Z,99.90
2023-03-14T01:10:11.289Z,99.90
2023-03-14T01:12:39.397Z,99.90
2023-03-14T01:15:08.455Z,99.90
2023-03-14T01:17:38.904Z,99.90
2023-03-14T01:20:10.066Z,99.90
2023-03-14T01:22:40.814Z,99.90
2023-03-14T01:25:13.204Z,99.90
2023-03-14T01:27:41.782Z,99.90
2023-03-14T01:30:14.532Z,99.90
2023-03-14T01:32:43.054Z,99.90
2023-03-14T01:35:11.293Z,99.90
2023-03-14T01:37:40.389Z,99.90
2023-03-14T01:40:17.564Z,99.90
2023-03-14T01:42:56.352Z,99.90
2023-03-14T01:46:02.315Z,99.90
2023-03-14T01:48:37.240Z,99.90
2023-03-14T01:51:08.817Z,99.90
2023-03-14T01:53:37.455Z,99.90
2023-03-14T01:56:08.097Z,99.90
2023-03-14T01:58:36.827Z,99.90
2023-03-14T02:01:06.294Z,99.90
2023-03-14T02:03:40.625Z,99.90
2023-03-14T02:06:10.285Z,99.90
2023-03-14T02:08:42.784Z,99.90
2023-03-14T02:11:19.140Z,99.90
2023-03-14T02:14:00.117Z,99.90
2023-03-14T02:16:48.345Z,99.90
2023-03-14T02:19:59.732Z,99.90
2023-03-14T02:22:39.082Z,99.90
2023-03-14T02:25:14.546Z,99.90
2023-03-14T02:27:45.643Z,99.90
2023-03-14T02:30:18.870Z,99.90
2023-03-14T02:32:50.745Z,99.90
2023-03-14T02:35:24.043Z,99.90
2023-03-14T02:37:57.307Z,99.90
2023-03-14T02:40:28.356Z,99.90
2023-03-14T02:42:57.934Z,99.90
2023-03-14T02:45:42.683Z,99.90
2023-03-14T02:48:16.365Z,99.90
2023-03-14T02:50:46.092Z,99.90
2023-03-14T02:53:16.174Z,99.90
2023-03-14T02:55:47.533Z,99.90
2023-03-14T02:58:19.176Z,99.90
2023-03-14T03:00:50.082Z,99.90
2023-03-14T03:03:19.276Z,99.90
2023-03-14T03:05:51.730Z,99.90
2023-03-14T03:08:21.044Z,99.90
2023-03-14T03:10:50.246Z,99.90
2023-03-14T03:13:20.378Z,99.90
2023-03-14T03:15:52.485Z,99.90
2023-03-14T03:18:20.958Z,99.90
2023-03-14T03:20:49.683Z,99.90
2023-03-14T03:23:18.092Z,99.90
2023-03-14T03:25:50.615Z,99.90
2023-03-14T03:28:20.206Z,99.90
2023-03-14T03:30:48.952Z,99.90
2023-03-14T03:33:17.698Z,99.90
2023-03-14T03:35:48.768Z,99.90
2023-03-14T03:38:21.326Z,99.90
2023-03-14T03:40:52.216Z,99.90
2023-03-14T03:43:22.775Z,99.90
2023-03-14T03:45:51.402Z,99.90
2023-03-14T03:48:20.928Z,99.90
2023-03-14T03:50:50.015Z,99.90
2023-03-14T03:53:32.712Z,99.90
2023-03-14T03:56:03.597Z,99.90
2023-03-14T03:58:33.302Z,99.90
2023-03-14T04:01:01.491Z,99.90
2023-03-14T04:03:30.033Z,99.90
2023-03-14T04:06:02.399Z,99.90
2023-03-14T04:08:31.543Z,99.90
2023-03-14T04:11:00.739Z,99.90
2023-03-14T04:13:53.814Z,99.90
2023-03-14T04:16:24.229Z,99.90
2023-03-14T04:18:55.998Z,99.90
2023-03-14T04:21:25.711Z,99.90
2023-03-14T04:23:58.336Z,99.90
2023-03-14T04:26:30.289Z,99.90
2023-03-14T04:29:00.335Z,99.90
2023-03-14T04:31:28.807Z,99.90
2023-03-14T04:33:57.021Z,99.90
2023-03-14T04:36:37.247Z,99.90
2023-03-14T04:39:10.233Z,99.90
2023-03-14T04:41:42.841Z,99.90
2023-03-14T04:44:13.840Z,99.90
2023-03-14T04:46:42.381Z,99.90
2023-03-14T04:49:12.761Z,99.90
2023-03-14T04:51:41.786Z,99.90
2023-03-14T04:54:10.274Z,99.90
2023-03-14T04:56:39.263Z,99.90
2023-03-14T04:59:07.520Z,99.90
2023-03-14T05:01:39.409Z,99.90
2023-03-14T05:04:26.180Z,99.90
2023-03-14T05:07:18.503Z,99.90
2023-03-14T05:10:06.437Z,99.90
2023-03-14T05:12:54.853Z,99.90
2023-03-14T05:15:37.514Z,99.90
2023-03-14T05:18:29.067Z,99.90
2023-03-14T05:21:08.355Z,99.90
2023-03-14T05:24:08.885Z,99.90
2023-03-14T05:26:56.169Z,99.90
2023-03-14T05:29:53.692Z,99.90
2023-03-14T05:32:48.315Z,99.90
2023-03-14T05:35:56.582Z,99.90
2023-03-14T05:38:54.125Z,99.90
2023-03-14T05:41:45.204Z,99.90
2023-03-14T05:44:19.796Z,99.90
2023-03-14T05:47:06.413Z,99.90
2023-03-14T05:49:57.402Z,99.90
2023-03-14T05:52:38.152Z,99.90
2023-03-14T05:55:28.433Z,99.90
2023-03-14T05:58:26.435Z,99.90
2023-03-14T06:01:16.131Z,99.90
2023-03-14T06:04:07.021Z,99.90
2023-03-14T06:06:35.533Z,99.90
2023-03-14T06:09:05.289Z,99.90
2023-03-14T06:11:35.617Z,99.90
2023-03-14T06:14:04.569Z,99.90
2023-03-14T06:16:33.823Z,99.90
2023-03-14T06:19:02.707Z,99.90
2023-03-14T06:21:32.102Z,99.90
2023-03-14T06:24:00.469Z,99.90
2023-03-14T06:26:32.710Z,99.90
2023-03-14T06:29:04.400Z,99.90
2023-03-14T06:31:34.964Z,99.90
2023-03-14T06:34:06.384Z,99.90
2023-03-14T06:36:35.858Z,99.90
2023-03-14T06:39:06.016Z,99.90
2023-03-14T06:41:38.416Z,99.90
2023-03-14T06:44:07.101Z,99.90
2023-03-14T06:46:35.210Z,99.90
2023-03-14T06:49:03.913Z,99.90
2023-03-14T06:51:34.116Z,99.90
2023-03-14T06:54:05.158Z,99.90
2023-03-14T06:56:33.712Z,99.90
2023-03-14T06:59:03.221Z,99.90
2023-03-14T07:01:36.273Z,99.90
2023-03-14T07:04:10.524Z,99.90
2023-03-14T07:06:45.396Z,99.90
2023-03-14T07:09:14.290Z,99.90
2023-03-14T07:11:47.715Z,99.90
2023-03-14T07:14:20.326Z,99.90
2023-03-14T07:16:49.332Z,99.90
2023-03-14T07:19:17.752Z,99.90
2023-03-14T07:21:46.196Z,99.90
2023-03-14T07:24:16.815Z,99.90
2023-03-14T07:26:44.991Z,99.90
2023-03-14T07:29:13.180Z,99.90
2023-03-14T07:31:44.236Z,99.90
2023-03-14T07:34:13.081Z,99.90
2023-03-14T07:36:44.960Z,99.90
2023-03-14T07:39:13.422Z,99.90
2023-03-14T07:41:49.482Z,99.90
2023-03-14T07:44:41.219Z,99.90
2023-03-14T07:47:12.353Z,99.90
2023-03-14T07:49:40.780Z,99.90
2023-03-14T07:52:08.914Z,99.90
2023-03-14T07:54:37.088Z,99.90
2023-03-14T07:57:05.303Z,99.90
2023-03-14T07:59:33.850Z,99.90
2023-03-14T08:02:01.970Z,99.90
2023-03-14T08:04:31.494Z,99.90
2023-03-14T08:06:59.808Z,99.90
2023-03-14T08:09:28.052Z,99.90
2023-03-14T08:11:57.670Z,99.90
2023-03-14T08:14:27.148Z,99.90
2023-03-14T08:16:55.259Z,99.90
2023-03-14T08:19:23.454Z,99.90
2023-03-14T08:21:55.402Z,99.90
2023-03-14T08:24:23.590Z,99.90
2023-03-14T08:26:51.703Z,99.90
2023-03-14T08:29:20.082Z,99.90
2023-03-14T08:31:49.985Z,99.90
2023-03-14T08:34:18.574Z,99.90
2023-03-14T08:36:47.359Z,99.90
2023-03-14T08:39:16.949Z,99.90
2023-03-14T08:41:45.552Z,99.90
2023-03-14T08:44:14.293Z,99.90
2023-03-14T08:46:42.414Z,99.90
2023-03-14T08:49:10.736Z,99.90
2023-03-14T08:51:39.073Z,99.90
2023-03-14T08:54:07.290Z,99.90
2023-03-14T08:56:38.781Z,99.90
2023-03-14T08:59:07.133Z,99.90
2023-03-14T09:01:35.240Z,99.90
2023-03-14T09:04:03.611Z,99.90
2023-03-14T09:06:31.983Z,99.90
2023-03-14T09:09:00.453Z,99.90
2023-03-14T09:11:28.591Z,99.90
2023-03-14T09:13:58.736Z,99.90
2023-03-14T09:16:27.139Z,99.90
2023-03-14T09:18:55.637Z,99.90
2023-03-14T09:21:24.016Z,99.90
2023-03-14T09:23:52.187Z,99.90
2023-03-14T09:26:20.313Z,99.90
2023-03-14T09:28:48.663Z,99.90
2023-03-14T09:31:18.197Z,99.90
2023-03-14T09:33:46.697Z,99.90
2023-03-14T09:36:15.060Z,99.90
2023-03-14T09:38:43.308Z,99.90
2023-03-14T09:41:18.048Z,99.90
2023-03-14T09:43:48.505Z,99.90
2023-03-14T09:46:19.221Z,99.90
2023-03-14T09:48:47.906Z,99.90
2023-03-14T09:51:18.968Z,99.90
2023-03-14T09:53:50.094Z,99.90
2023-03-14T09:56:21.343Z,99.90
2023-03-14T09:58:53.820Z,99.90
2023-03-14T10:01:26.656Z,99.90
2023-03-14T10:03:57.937Z,99.90
2023-03-14T10:06:28.981Z,99.90
2023-03-14T10:08:58.805Z,99.90
2023-03-14T10:11:27.319Z,99.90
2023-03-14T10:14:10.470Z,99.90
2023-03-14T10:16:44.497Z,99.90
2023-03-14T10:19:15.626Z,99.90
2023-03-14T10:21:45.431Z,99.90
2023-03-14T10:24:22.484Z,99.90
2023-03-14T10:26:52.209Z,99.90
2023-03-14T10:29:20.384Z,99.90
2023-03-14T10:31:55.116Z,99.90
2023-03-14T10:34:26.335Z,99.90
2023-03-14T10:36:56.293Z,99.90
2023-03-14T10:39:42.404Z,99.90
2023-03-14T10:42:20.246Z,99.90
2023-03-14T10:44:50.439Z,99.90
2023-03-14T10:47:24.193Z,99.90
2023-03-14T10:49:55.785Z,99.90
2023-03-14T10:52:31.246Z,99.90
2023-03-14T10:55:10.529Z,99.90
2023-03-14T10:57:41.357Z,99.90
2023-03-14T11:00:18.151Z,99.90
2023-03-14T11:02:58.947Z,99.90
2023-03-14T11:05:33.906Z,99.90
2023-03-14T11:08:06.999Z,99.90
2023-03-14T11:10:38.643Z,99.90
2023-03-14T11:13:17.532Z,99.90
2023-03-14T11:15:55.913Z,99.90
2023-03-14T11:18:56.526Z,99.90
2023-03-14T11:21:30.566Z,99.90
2023-03-14T11:24:05.098Z,99.90
2023-03-14T11:26:39.441Z,99.90
2023-03-14T11:29:21.965Z,99.90
2023-03-14T11:31:50.682Z,99.90
2023-03-14T11:34:27.896Z,99.90
2023-03-14T11:37:02.108Z,99.90
2023-03-14T11:39:40.776Z,99.90
2023-03-14T11:42:14.955Z,99.90
2023-03-14T11:44:46.443Z,99.90
2023-03-14T11:47:19.504Z,99.90
2023-03-14T11:49:53.706Z,99.90
2023-03-14T11:52:26.114Z,99.90
2023-03-14T11:55:00.440Z,99.90
2023-03-14T11:57:28.473Z,99.90
2023-03-14T12:00:04.030Z,99.90
2023-03-14T12:02:49.865Z,99.90
2023-03-14T12:05:45.090Z,99.90
2023-03-14T12:08:51.503Z,99.90
2023-03-14T12:11:24.429Z,99.90
2023-03-14T12:13:54.250Z,99.90
2023-03-14T12:16:38.497Z,99.90
2023-03-14T12:19:29.022Z,99.90
2023-03-14T12:22:02.928Z,99.90
2023-03-14T12:24:34.102Z,99.90
2023-03-14T12:27:04.164Z,99.90
2023-03-14T12:29:32.781Z,99.90
2023-03-14T12:32:26.032Z,99.90
2023-03-14T12:34:54.769Z,99.90
2023-03-14T12:40:26.893Z,99.90
2023-03-14T12:43:00.517Z,99.90
2023-03-14T12:45:31.240Z,99.90
2023-03-14T12:48:16.841Z,98.40
2023-03-14T12:50:47.415Z,96.90
2023-03-14T12:53:52.468Z,97.10
2023-03-14T12:56:26.193Z,92.80
2023-03-14T12:59:13.891Z,91.60
2023-03-14T13:01:50.460Z,91.40
2023-03-14T13:04:26.232Z,90.60
2023-03-14T13:07:01.105Z,89.70
2023-03-14T13:09:55.453Z,90.10
2023-03-14T13:12:31.396Z,87.50
2023-03-14T13:15:03.482Z,87.10
2023-03-14T13:17:37.688Z,90.60
2023-03-14T13:20:15.145Z,84.00
2023-03-14T13:22:49.375Z,83.70
2023-03-14T13:25:21.992Z,80.00
2023-03-14T13:27:51.241Z,87.00
2023-03-14T13:30:23.883Z,81.50
2023-03-14T13:32:53.639Z,86.50
2023-03-14T13:35:25.967Z,90.20
2023-03-14T13:38:10.547Z,89.00
2023-03-14T13:40:41.159Z,86.70
2023-03-14T13:43:17.806Z,88.10
2023-03-14T13:45:48.339Z,89.00
2023-03-14T13:48:17.784Z,91.10
2023-03-14T13:50:55.477Z,93.50
2023-03-14T13:53:24.828Z,92.20
2023-03-14T13:55:54.948Z,91.70
2023-03-14T13:58:26.475Z,90.70
2023-03-14T14:01:07.147Z,89.10
2023-03-14T14:03:39.607Z,86.00
2023-03-14T14:06:13.000Z,82.00
2023-03-14T14:08:44.650Z,82.10
2023-03-14T14:11:23.354Z,76.20
2023-03-14T14:14:18.386Z,64.80
2023-03-14T14:16:48.787Z,54.40
2023-03-14T14:19:18.028Z,56.70
2023-03-14T14:21:46.663Z,54.80
2023-03-14T14:24:15.607Z,54.90
2023-03-14T14:26:49.953Z,55.40
2023-03-14T14:29:28.192Z,56.80
2023-03-14T14:32:13.943Z,60.40
2023-03-14T14:34:50.138Z,61.30
2023-03-14T14:37:21.992Z,62.60
2023-03-14T14:39:51.124Z,66.60
2023-03-14T14:42:23.836Z,67.10
2023-03-14T14:44:53.443Z,72.50
2023-03-14T14:47:24.816Z,70.60
2023-03-14T14:49:54.820Z,73.60
2023-03-14T14:52:32.594Z,69.20
2023-03-14T14:55:02.182Z,70.80
2023-03-14T14:57:37.214Z,68.00
2023-03-14T15:00:13.153Z,70.20
2023-03-14T15:02:47.495Z,65.80
2023-03-14T15:05:16.955Z,69.40
2023-03-14T15:07:45.092Z,72.80
2023-03-14T15:10:14.931Z,70.40
2023-03-14T15:12:44.484Z,70.90
2023-03-14T15:15:13.919Z,73.40
2023-03-14T15:17:42.196Z,74.60
2023-03-14T15:20:15.204Z,71.80
2023-03-14T15:22:44.482Z,68.60
2023-03-14T15:25:36.873Z,71.00
2023-03-14T15:28:02.855Z,72.10
2023-03-14T15:30:30.934Z,67.20
2023-03-14T15:32:59.255Z,72.80
2023-03-14T15:35:27.619Z,69.10
2023-03-14T15:37:56.644Z,72.60
2023-03-14T15:40:28.261Z,71.40
2023-03-14T15:42:58.977Z,73.80
2023-03-14T15:45:28.530Z,76.80
2023-03-14T15:47:56.856Z,80.40
2023-03-14T15:50:26.485Z,77.50
2023-03-14T15:52:54.658Z,73.90
2023-03-14T15:55:22.775Z,72.70
2023-03-14T15:57:51.438Z,78.90
2023-03-14T16:00:22.542Z,73.60
2023-03-14T16:02:52.707Z,79.60
2023-03-14T16:05:21.275Z,73.70
2023-03-14T16:07:50.051Z,72.90
2023-03-14T16:10:18.631Z,70.60
2023-03-14T16:12:46.845Z,71.80
2023-03-14T16:15:14.959Z,70.20
2023-03-14T16:17:44.328Z,73.90
2023-03-14T16:20:14.421Z,76.20
2023-03-14T16:22:42.859Z,76.40
2023-03-14T16:25:12.197Z,72.90
2023-03-14T16:27:40.444Z,71.40
2023-03-14T16:30:09.877Z,70.80
2023-03-14T16:32:38.381Z,77.60
2023-03-14T16:35:07.202Z,76.40
2023-03-14T16:37:36.929Z,77.20
2023-03-14T16:40:12.594Z,79.20
2023-03-14T16:43:04.931Z,79.10
2023-03-14T16:45:30.813Z,81.10
2023-03-14T16:47:58.986Z,78.80
2023-03-14T16:50:27.349Z,76.90
2023-03-14T16:52:57.076Z,79.20
2023-03-14T16:55:25.301Z,80.30
2023-03-14T16:57:53.376Z,80.50
2023-03-14T17:00:22.596Z,75.70
2023-03-14T17:02:50.787Z,81.40
2023-03-14T17:05:21.046Z,82.40
2023-03-14T17:07:49.756Z,86.20
2023-03-14T17:10:19.796Z,85.00
2023-03-14T17:12:48.046Z,85.40
2023-03-14T17:15:16.345Z,90.80
2023-03-14T17:17:46.334Z,94.10
2023-03-14T17:20:14.634Z,93.80
2023-03-14T17:22:42.978Z,96.60
2023-03-14T17:25:11.397Z,97.90
2023-03-14T17:27:40.994Z,99.00
2023-03-14T17:30:11.488Z,98.40
2023-03-14T17:32:39.877Z,96.30
2023-03-14T17:35:08.314Z,97.50
2023-03-14T17:37:36.754Z,96.20
2023-03-14T17:40:06.046Z,99.60
2023-03-14T17:42:34.260Z,98.80
2023-03-14T17:45:03.889Z,99.70
2023-03-14T17:47:32.025Z,99.90
2023-03-14T17:50:00.948Z,99.90
2023-03-14T17:52:29.199Z,99.90
2023-03-14T17:54:57.310Z,99.90
2023-03-14T17:57:25.645Z,99.90
2023-03-14T17:59:54.107Z,99.90
2023-03-14T18:02:25.080Z,99.90
2023-03-14T18:04:54.448Z,99.90
2023-03-14T18:07:23.080Z,99.90
2023-03-14T18:09:51.929Z,99.90
2023-03-14T18:12:20.141Z,99.90
2023-03-14T18:14:48.485Z,99.90
2023-03-14T18:17:16.703Z,99.90
2023-03-14T18:19:46.378Z,99.90
2023-03-14T18:22:16.186Z,99.80
2023-03-14T18:24:44.351Z,99.90
2023-03-14T18:27:12.514Z,99.90
2023-03-14T18:29:42.239Z,99.90
2023-03-14T18:32:10.942Z,99.90
2023-03-14T18:34:39.396Z,99.90
2023-03-14T18:37:09.078Z,99.90
2023-03-14T18:39:37.281Z,99.90
2023-03-14T18:42:05.570Z,99.90
2023-03-14T18:44:34.112Z,99.90
2023-03-14T18:47:02.273Z,99.90
2023-03-14T18:49:30.614Z,99.90
2023-03-14T18:51:58.775Z,99.90
2023-03-14T18:54:28.393Z,99.90
2023-03-14T18:56:56.849Z,99.90
2023-03-14T18:59:25.372Z,99.90
2023-03-14T19:01:54.222Z,99.90
2023-03-14T19:04:22.932Z,99.90
2023-03-14T19:06:54.194Z,99.90
2023-03-14T19:09:22.384Z,99.90
2023-03-14T19:11:51.851Z,99.90
2023-03-14T19:14:20.978Z,99.90
2023-03-14T19:16:49.249Z,99.90
2023-03-14T19:19:17.531Z,99.90
2023-03-14T19:21:45.896Z,99.90
2023-03-14T19:24:19.736Z,99.90
2023-03-14T19:26:48.088Z,99.90
2023-03-14T19:29:17.928Z,99.90
2023-03-14T19:31:46.528Z,99.90
2023-03-14T19:34:14.746Z,99.90
2023-03-14T19:36:42.971Z,99.90
2023-03-14T19:39:11.079Z,99.90
2023-03-14T19:41:39.708Z,99.90
2023-03-14T19:44:09.934Z,99.90
2023-03-14T19:46:39.815Z,99.90
2023-03-14T19:49:08.016Z,99.90
2023-03-14T19:51:36.287Z,99.90
2023-03-14T19:54:05.078Z,99.90
2023-03-14T19:56:34.359Z,99.90
2023-03-14T19:59:04.184Z,99.90
2023-03-14T20:01:32.592Z,99.90
2023-03-14T20:04:04.660Z,99.90
2023-03-14T20:06:34.455Z,99.90
2023-03-14T20:09:05.773Z,99.90
2023-03-14T20:11:35.400Z,99.90
2023-03-14T20:14:03.706Z,99.90
2023-03-14T20:16:35.929Z,99.90
2023-03-14T20:19:07.140Z,99.90
2023-03-14T20:21:35.892Z,99.90
2023-03-14T20:24:05.230Z,99.90
2023-03-14T20:26:34.599Z,99.90
2023-03-14T20:29:02.727Z,99.90
2023-03-14T20:31:31.105Z,99.90
2023-03-14T20:33:59.476Z,99.90
2023-03-14T20:36:29.110Z,99.90
2023-03-14T20:38:57.497Z,99.90
2023-03-14T20:41:25.737Z,99.90
2023-03-14T20:43:53.893Z,99.90
2023-03-14T20:46:22.733Z,99.90
2023-03-14T20:48:53.060Z,99.90
2023-03-14T20:51:21.415Z,99.90
2023-03-14T20:53:50.922Z,99.90
2023-03-14T20:56:19.096Z,99.90
2023-03-14T20:58:47.783Z,99.90
2023-03-14T21:01:16.415Z,99.90
2023-03-14T21:03:44.528Z,99.90
2023-03-14T21:06:13.764Z,99.90
2023-03-14T21:08:42.677Z,99.90
2023-03-14T21:11:12.162Z,99.90
2023-03-14T21:13:40.401Z,99.90
2023-03-14T21:16:09.430Z,99.90
2023-03-14T21:18:37.775Z,99.90
2023-03-14T21:21:06.265Z,99.90
2023-03-14T21:23:36.488Z,99.90
2023-03-14T21:26:04.894Z,99.90
2023-03-14T21:28:34.499Z,99.90
2023-03-14T21:31:07.327Z,99.90
2023-03-14T21:33:36.146Z,99.90
2023-03-14T21:36:04.559Z,99.90
2023-03-14T21:38:35.932Z,99.90
2023-03-14T21:41:04.895Z,99.90
2023-03-14T21:43:34.683Z,99.90
2023-03-14T21:46:03.335Z,99.90
2023-03-14T21:48:31.645Z,99.90
2023-03-14T21:50:59.726Z,99.90
2023-03-14T21:53:29.968Z,99.90
2023-03-14T21:55:58.777Z,99.90
2023-03-14T21:58:27.075Z,99.90
2023-03-14T22:01:04.466Z,99.90
2023-03-14T22:03:34.843Z,99.90
2023-03-14T22:06:04.424Z,99.90
2023-03-14T22:08:32.589Z,99.90
2023-03-14T22:11:00.693Z,99.90
2023-03-14T22:13:28.994Z,99.90
2023-03-14T22:15:58.593Z,99.90
2023-03-14T22:18:27.012Z,99.90
2023-03-14T22:20:55.510Z,99.90
2023-03-14T22:23:23.828Z,99.90
2023-03-14T22:25:52.117Z,99.90
2023-03-14T22:28:21.679Z,99.90
2023-03-14T22:30:51.035Z,99.90
2023-03-14T22:33:21.361Z,99.90
2023-03-14T22:35:50.606Z,99.90
2023-03-14T22:38:18.889Z,99.90
2023-03-14T22:40:47.403Z,99.90
2023-03-14T22:43:15.807Z,99.90
2023-03-14T22:45:44.413Z,99.90
2023-03-14T22:48:12.823Z,99.90
2023-03-14T22:50:42.529Z,99.90
2023-03-14T22:53:10.777Z,99.90
2023-03-14T22:55:38.872Z,99.90
2023-03-14T22:58:07.544Z,99.90
2023-03-14T23:00:35.747Z,99.90
2023-03-14T23:03:03.933Z,99.90
2023-03-14T23:05:32.263Z,99.90
2023-03-14T23:08:01.898Z,99.90
2023-03-14T23:10:29.974Z,99.90
2023-03-14T23:12:58.184Z,99.90
2023-03-14T23:15:26.837Z,99.90
2023-03-14T23:17:55.529Z,99.90
2023-03-14T23:20:23.804Z,99.90
2023-03-14T23:22:52.014Z,99.90
2023-03-14T23:25:21.680Z,99.90
2023-03-14T23:27:50.032Z,99.90
2023-03-14T23:30:18.627Z,99.90
2023-03-14T23:32:47.088Z,99.90
2023-03-14T23:35:16.553Z,99.90
2023-03-14T23:37:44.771Z,99.90
2023-03-14T23:40:13.703Z,99.90
2023-03-14T23:42:43.602Z,99.90
2023-03-14T23:45:14.094Z,99.90
2023-03-14T23:47:42.462Z,99.90
2023-03-14T23:50:11.969Z,99.90
2023-03-14T23:52:40.122Z,99.90
2023-03-14T23:55:08.729Z,99.90
2023-03-14T23:57:37.252Z,99.90
